Enter the Airport ICAO Code

Search by Airport or City

Current Weather

LEMG | Málaga Airport

Málaga, Andalusia, Spain

Last Update 17 Minutes Ago

Partly Cloudy Sky

Temperature of 10 ºC

Light to Moderate Winds from NorthWest

Temperature

10 ºC

Dew Point Temperature

08 ºC

Relative Humidity

87.42 %

Wind Direction

NorthWest (300º, Without Significant Variations)

Wind Velocity

9 km/h (05 kt)

Gusts

None

Visibility

Greater than 10 Kilometers

Sea Level Pressure

1008 hPa (Hectopascals)

Layers of Clouds

5% to 30% of Sky Covered from 305 mts (1000 ft) Above Ground Level.

30% to 60% of Sky Covered from 427 mts (1400 ft) Above Ground Level.

METAR LEMG 160700Z 30005KT 9999 FEW010 SCT014 10/08 Q1008 NOSIG

Weather Forecast

LEMG | Málaga Airport

Málaga, Andalusia, Spain

Forecast valid for the next 23 Hours

From now on it is expected:

Sky with Few Clouds

Light Winds from West

In 1 to 3 hours it is expected the begining of:

Light to Moderate Winds from SouthEast

Maximum Temperature

19 ºC in 6 Hours

Minimum Temperature

11 ºC in 23 Hours

TAF LEMG 160500Z 1606/1706 29004KT 9999 FEW040 TX19/1613Z TN11/1706Z BECMG 1608/1610 13006KT